sensor_id;sensor_type;location;lat;lon;timestamp;P1;durP1;ratioP1;P2;durP2;ratioP2
2388;SDS011;1205;47.984;7.668;2023-08-01T00:01:24;6.53;;;4.10;;
2388;SDS011;1205;47.984;7.668;2023-08-01T00:03:49;5.70;;;3.93;;
2388;SDS011;1205;47.984;7.668;2023-08-01T00:06:15;4.10;;;3.80;;
2388;SDS011;1205;47.984;7.668;2023-08-01T00:08:40;5.20;;;4.03;;
2388;SDS011;1205;47.984;7.668;2023-08-01T00:11:06;8.23;;;4.13;;
2388;SDS011;1205;47.984;7.668;2023-08-01T00:13:32;4.77;;;4.30;;
2388;SDS011;1205;47.984;7.668;2023-08-01T00:15:57;4.67;;;3.80;;
2388;SDS011;1205;47.984;7.668;2023-08-01T00:18:23;4.50;;;3.47;;
2388;SDS011;1205;47.984;7.668;2023-08-01T00:20:51;4.50;;;3.90;;
2388;SDS011;1205;47.984;7.668;2023-08-01T00:23:17;6.17;;;3.80;;
2388;SDS011;1205;47.984;7.668;2023-08-01T00:25:43;5.43;;;4.10;;
2388;SDS011;1205;47.984;7.668;2023-08-01T00:28:09;6.33;;;3.90;;
2388;SDS011;1205;47.984;7.668;2023-08-01T00:30:34;4.93;;;3.97;;
2388;SDS011;1205;47.984;7.668;2023-08-01T00:33:00;8.37;;;3.90;;
2388;SDS011;1205;47.984;7.668;2023-08-01T00:35:25;5.60;;;3.60;;
2388;SDS011;1205;47.984;7.668;2023-08-01T00:37:51;5.50;;;3.93;;
2388;SDS011;1205;47.984;7.668;2023-08-01T00:40:17;5.50;;;3.80;;
2388;SDS011;1205;47.984;7.668;2023-08-01T00:42:42;5.80;;;3.63;;
2388;SDS011;1205;47.984;7.668;2023-08-01T00:45:08;5.70;;;3.63;;
2388;SDS011;1205;47.984;7.668;2023-08-01T00:47:34;4.77;;;3.53;;
2388;SDS011;1205;47.984;7.668;2023-08-01T00:50:00;6.30;;;3.50;;
2388;SDS011;1205;47.984;7.668;2023-08-01T00:52:26;3.93;;;3.63;;
2388;SDS011;1205;47.984;7.668;2023-08-01T00:54:52;4.03;;;3.60;;
2388;SDS011;1205;47.984;7.668;2023-08-01T00:57:19;5.53;;;3.47;;
2388;SDS011;1205;47.984;7.668;2023-08-01T00:59:44;3.70;;;3.10;;
2388;SDS011;1205;47.984;7.668;2023-08-01T01:02:10;4.10;;;3.20;;
2388;SDS011;1205;47.984;7.668;2023-08-01T01:04:36;3.97;;;3.37;;
2388;SDS011;1205;47.984;7.668;2023-08-01T01:07:03;7.83;;;3.60;;
2388;SDS011;1205;47.984;7.668;2023-08-01T01:09:31;4.63;;;2.83;;
2388;SDS011;1205;47.984;7.668;2023-08-01T01:11:57;3.90;;;3.40;;
2388;SDS011;1205;47.984;7.668;2023-08-01T01:14:24;8.10;;;4.20;;
2388;SDS011;1205;47.984;7.668;2023-08-01T01:16:53;3.57;;;3.27;;
2388;SDS011;1205;47.984;7.668;2023-08-01T01:19:18;4.30;;;3.13;;
2388;SDS011;1205;47.984;7.668;2023-08-01T01:21:44;3.17;;;2.90;;
2388;SDS011;1205;47.984;7.668;2023-08-01T01:24:11;5.10;;;2.90;;
2388;SDS011;1205;47.984;7.668;2023-08-01T01:26:39;4.37;;;3.50;;
2388;SDS011;1205;47.984;7.668;2023-08-01T01:29:06;6.40;;;2.93;;
2388;SDS011;1205;47.984;7.668;2023-08-01T01:31:33;4.40;;;3.53;;
2388;SDS011;1205;47.984;7.668;2023-08-01T01:34:01;3.83;;;3.50;;
2388;SDS011;1205;47.984;7.668;2023-08-01T01:36:27;5.60;;;3.57;;
2388;SDS011;1205;47.984;7.668;2023-08-01T01:38:54;6.00;;;3.73;;
2388;SDS011;1205;47.984;7.668;2023-08-01T01:41:19;3.30;;;3.10;;
2388;SDS011;1205;47.984;7.668;2023-08-01T01:43:45;9.40;;;4.03;;
2388;SDS011;1205;47.984;7.668;2023-08-01T01:46:10;4.33;;;3.90;;
2388;SDS011;1205;47.984;7.668;2023-08-01T01:48:36;3.73;;;3.13;;
2388;SDS011;1205;47.984;7.668;2023-08-01T01:51:01;8.60;;;3.47;;
2388;SDS011;1205;47.984;7.668;2023-08-01T01:53:27;5.10;;;2.93;;
2388;SDS011;1205;47.984;7.668;2023-08-01T01:55:53;3.77;;;3.03;;
2388;SDS011;1205;47.984;7.668;2023-08-01T01:58:18;2.70;;;2.50;;
2388;SDS011;1205;47.984;7.668;2023-08-01T02:00:44;5.03;;;3.03;;
2388;SDS011;1205;47.984;7.668;2023-08-01T02:03:09;3.83;;;3.13;;
2388;SDS011;1205;47.984;7.668;2023-08-01T02:05:35;3.17;;;2.63;;
2388;SDS011;1205;47.984;7.668;2023-08-01T02:08:01;5.33;;;3.60;;
2388;SDS011;1205;47.984;7.668;2023-08-01T02:10:27;3.40;;;3.10;;
2388;SDS011;1205;47.984;7.668;2023-08-01T02:12:53;8.10;;;3.70;;
2388;SDS011;1205;47.984;7.668;2023-08-01T02:15:18;4.60;;;3.07;;
2388;SDS011;1205;47.984;7.668;2023-08-01T02:17:44;4.90;;;3.43;;
2388;SDS011;1205;47.984;7.668;2023-08-01T02:20:10;4.40;;;3.23;;
2388;SDS011;1205;47.984;7.668;2023-08-01T02:22:35;7.33;;;4.10;;
2388;SDS011;1205;47.984;7.668;2023-08-01T02:25:01;3.37;;;3.07;;
2388;SDS011;1205;47.984;7.668;2023-08-01T02:27:27;6.60;;;4.20;;
2388;SDS011;1205;47.984;7.668;2023-08-01T02:29:52;2.70;;;2.60;;
2388;SDS011;1205;47.984;7.668;2023-08-01T02:32:18;10.00;;;4.13;;
2388;SDS011;1205;47.984;7.668;2023-08-01T02:34:43;4.30;;;3.30;;
2388;SDS011;1205;47.984;7.668;2023-08-01T02:37:09;3.80;;;2.90;;
2388;SDS011;1205;47.984;7.668;2023-08-01T02:39:35;4.83;;;2.90;;
2388;SDS011;1205;47.984;7.668;2023-08-01T02:42:00;5.03;;;3.83;;
2388;SDS011;1205;47.984;7.668;2023-08-01T02:44:26;5.03;;;3.17;;
2388;SDS011;1205;47.984;7.668;2023-08-01T02:46:53;4.97;;;3.20;;
2388;SDS011;1205;47.984;7.668;2023-08-01T02:49:19;2.87;;;2.77;;
2388;SDS011;1205;47.984;7.668;2023-08-01T02:51:44;7.40;;;3.60;;
2388;SDS011;1205;47.984;7.668;2023-08-01T02:54:10;3.80;;;3.27;;
2388;SDS011;1205;47.984;7.668;2023-08-01T02:56:35;3.30;;;3.00;;
2388;SDS011;1205;47.984;7.668;2023-08-01T02:59:06;9.87;;;4.20;;
2388;SDS011;1205;47.984;7.668;2023-08-01T03:01:33;5.33;;;3.37;;
2388;SDS011;1205;47.984;7.668;2023-08-01T03:04:03;5.63;;;3.07;;
2388;SDS011;1205;47.984;7.668;2023-08-01T03:06:31;5.57;;;3.43;;
2388;SDS011;1205;47.984;7.668;2023-08-01T03:09:00;5.40;;;3.67;;
2388;SDS011;1205;47.984;7.668;2023-08-01T03:11:25;5.10;;;3.17;;
2388;SDS011;1205;47.984;7.668;2023-08-01T03:13:51;5.67;;;3.20;;
2388;SDS011;1205;47.984;7.668;2023-08-01T03:16:17;3.60;;;2.80;;
2388;SDS011;1205;47.984;7.668;2023-08-01T03:18:43;8.23;;;2.77;;
2388;SDS011;1205;47.984;7.668;2023-08-01T03:21:08;5.23;;;3.33;;
2388;SDS011;1205;47.984;7.668;2023-08-01T03:23:34;6.47;;;3.70;;
2388;SDS011;1205;47.984;7.668;2023-08-01T03:26:00;4.90;;;3.70;;
2388;SDS011;1205;47.984;7.668;2023-08-01T03:28:26;5.20;;;3.83;;
2388;SDS011;1205;47.984;7.668;2023-08-01T03:30:51;11.30;;;3.60;;
2388;SDS011;1205;47.984;7.668;2023-08-01T03:33:18;10.77;;;3.90;;
2388;SDS011;1205;47.984;7.668;2023-08-01T03:35:44;5.63;;;2.90;;
2388;SDS011;1205;47.984;7.668;2023-08-01T03:38:10;3.77;;;2.73;;
2388;SDS011;1205;47.984;7.668;2023-08-01T03:40:35;4.47;;;3.43;;
2388;SDS011;1205;47.984;7.668;2023-08-01T03:43:01;3.57;;;3.07;;
2388;SDS011;1205;47.984;7.668;2023-08-01T03:45:27;4.00;;;3.30;;
2388;SDS011;1205;47.984;7.668;2023-08-01T03:47:52;3.53;;;3.23;;
2388;SDS011;1205;47.984;7.668;2023-08-01T03:50:18;3.10;;;2.80;;
2388;SDS011;1205;47.984;7.668;2023-08-01T03:52:43;5.70;;;3.60;;
2388;SDS011;1205;47.984;7.668;2023-08-01T03:55:10;5.33;;;3.00;;
2388;SDS011;1205;47.984;7.668;2023-08-01T03:57:36;4.03;;;3.57;;
2388;SDS011;1205;47.984;7.668;2023-08-01T04:00:03;4.40;;;3.70;;
2388;SDS011;1205;47.984;7.668;2023-08-01T04:02:38;3.67;;;3.10;;
2388;SDS011;1205;47.984;7.668;2023-08-01T04:05:05;7.03;;;3.60;;
2388;SDS011;1205;47.984;7.668;2023-08-01T04:07:31;4.23;;;3.30;;
2388;SDS011;1205;47.984;7.668;2023-08-01T04:09:56;5.30;;;3.70;;
2388;SDS011;1205;47.984;7.668;2023-08-01T04:12:22;6.23;;;3.47;;
2388;SDS011;1205;47.984;7.668;2023-08-01T04:14:47;5.83;;;3.50;;
2388;SDS011;1205;47.984;7.668;2023-08-01T04:17:13;5.97;;;3.57;;
2388;SDS011;1205;47.984;7.668;2023-08-01T04:19:38;5.90;;;3.30;;
2388;SDS011;1205;47.984;7.668;2023-08-01T04:22:04;3.47;;;3.27;;
2388;SDS011;1205;47.984;7.668;2023-08-01T04:24:30;8.43;;;3.70;;
2388;SDS011;1205;47.984;7.668;2023-08-01T04:26:56;6.50;;;3.83;;
2388;SDS011;1205;47.984;7.668;2023-08-01T04:29:21;9.80;;;5.33;;
2388;SDS011;1205;47.984;7.668;2023-08-01T04:31:47;8.83;;;4.23;;
2388;SDS011;1205;47.984;7.668;2023-08-01T04:34:12;6.87;;;3.70;;
2388;SDS011;1205;47.984;7.668;2023-08-01T04:36:38;5.93;;;3.50;;
2388;SDS011;1205;47.984;7.668;2023-08-01T04:39:03;5.50;;;3.60;;
2388;SDS011;1205;47.984;7.668;2023-08-01T04:41:29;6.60;;;4.10;;
2388;SDS011;1205;47.984;7.668;2023-08-01T04:43:54;5.30;;;4.00;;
2388;SDS011;1205;47.984;7.668;2023-08-01T04:46:20;5.57;;;3.83;;
2388;SDS011;1205;47.984;7.668;2023-08-01T04:48:46;11.37;;;3.03;;
2388;SDS011;1205;47.984;7.668;2023-08-01T04:51:11;7.70;;;4.10;;
2388;SDS011;1205;47.984;7.668;2023-08-01T04:53:37;8.03;;;4.67;;
2388;SDS011;1205;47.984;7.668;2023-08-01T04:56:02;9.67;;;4.17;;
2388;SDS011;1205;47.984;7.668;2023-08-01T04:58:28;11.93;;;4.33;;
2388;SDS011;1205;47.984;7.668;2023-08-01T05:00:55;6.43;;;3.83;;
2388;SDS011;1205;47.984;7.668;2023-08-01T05:03:21;14.93;;;4.30;;
2388;SDS011;1205;47.984;7.668;2023-08-01T05:05:46;10.77;;;5.10;;
2388;SDS011;1205;47.984;7.668;2023-08-01T05:08:12;14.27;;;3.90;;
2388;SDS011;1205;47.984;7.668;2023-08-01T05:10:37;6.47;;;3.87;;
2388;SDS011;1205;47.984;7.668;2023-08-01T05:13:03;4.77;;;3.43;;
2388;SDS011;1205;47.984;7.668;2023-08-01T05:15:28;9.20;;;4.00;;
2388;SDS011;1205;47.984;7.668;2023-08-01T05:17:54;6.53;;;3.70;;
2388;SDS011;1205;47.984;7.668;2023-08-01T05:20:20;5.97;;;4.10;;
2388;SDS011;1205;47.984;7.668;2023-08-01T05:22:46;10.03;;;4.23;;
2388;SDS011;1205;47.984;7.668;2023-08-01T05:25:12;4.57;;;4.00;;
2388;SDS011;1205;47.984;7.668;2023-08-01T05:27:38;6.77;;;4.00;;
2388;SDS011;1205;47.984;7.668;2023-08-01T05:30:04;8.17;;;4.00;;
2388;SDS011;1205;47.984;7.668;2023-08-01T05:32:30;11.80;;;4.43;;
2388;SDS011;1205;47.984;7.668;2023-08-01T05:34:56;7.73;;;3.90;;
2388;SDS011;1205;47.984;7.668;2023-08-01T05:37:21;12.67;;;4.17;;
2388;SDS011;1205;47.984;7.668;2023-08-01T05:39:47;5.90;;;4.37;;
2388;SDS011;1205;47.984;7.668;2023-08-01T05:42:12;6.43;;;4.43;;
2388;SDS011;1205;47.984;7.668;2023-08-01T05:44:38;6.93;;;4.90;;
2388;SDS011;1205;47.984;7.668;2023-08-01T05:47:04;6.37;;;4.30;;
2388;SDS011;1205;47.984;7.668;2023-08-01T05:49:30;6.10;;;4.67;;
2388;SDS011;1205;47.984;7.668;2023-08-01T05:51:55;7.60;;;4.70;;
2388;SDS011;1205;47.984;7.668;2023-08-01T05:54:21;4.90;;;3.80;;
2388;SDS011;1205;47.984;7.668;2023-08-01T05:56:46;7.37;;;3.60;;
2388;SDS011;1205;47.984;7.668;2023-08-01T05:59:12;8.43;;;3.57;;
2388;SDS011;1205;47.984;7.668;2023-08-01T06:01:37;9.13;;;4.70;;
2388;SDS011;1205;47.984;7.668;2023-08-01T06:04:03;7.43;;;4.27;;
2388;SDS011;1205;47.984;7.668;2023-08-01T06:06:29;6.53;;;4.70;;
2388;SDS011;1205;47.984;7.668;2023-08-01T06:08:54;7.70;;;3.90;;
2388;SDS011;1205;47.984;7.668;2023-08-01T06:11:21;7.40;;;4.40;;
2388;SDS011;1205;47.984;7.668;2023-08-01T06:13:46;13.20;;;4.80;;
2388;SDS011;1205;47.984;7.668;2023-08-01T06:16:12;3.67;;;3.33;;
2388;SDS011;1205;47.984;7.668;2023-08-01T06:18:37;4.37;;;3.33;;
2388;SDS011;1205;47.984;7.668;2023-08-01T06:21:03;12.93;;;4.20;;
2388;SDS011;1205;47.984;7.668;2023-08-01T06:23:29;11.77;;;4.30;;
2388;SDS011;1205;47.984;7.668;2023-08-01T06:25:54;5.00;;;4.13;;
2388;SDS011;1205;47.984;7.668;2023-08-01T06:28:20;7.83;;;4.33;;
2388;SDS011;1205;47.984;7.668;2023-08-01T06:30:45;4.60;;;3.77;;
2388;SDS011;1205;47.984;7.668;2023-08-01T06:33:12;16.33;;;5.37;;
2388;SDS011;1205;47.984;7.668;2023-08-01T06:35:38;10.40;;;4.60;;
2388;SDS011;1205;47.984;7.668;2023-08-01T06:38:03;8.70;;;4.50;;
2388;SDS011;1205;47.984;7.668;2023-08-01T06:40:29;5.80;;;4.30;;
2388;SDS011;1205;47.984;7.668;2023-08-01T06:42:54;9.03;;;4.63;;
2388;SDS011;1205;47.984;7.668;2023-08-01T06:45:20;7.50;;;4.23;;
2388;SDS011;1205;47.984;7.668;2023-08-01T06:47:45;11.10;;;4.30;;
2388;SDS011;1205;47.984;7.668;2023-08-01T06:50:11;11.07;;;5.53;;
2388;SDS011;1205;47.984;7.668;2023-08-01T06:52:36;12.13;;;4.40;;
2388;SDS011;1205;47.984;7.668;2023-08-01T06:55:02;9.97;;;4.70;;
2388;SDS011;1205;47.984;7.668;2023-08-01T06:57:28;5.70;;;5.00;;
2388;SDS011;1205;47.984;7.668;2023-08-01T06:59:53;8.13;;;4.57;;
2388;SDS011;1205;47.984;7.668;2023-08-01T07:02:19;8.83;;;4.60;;
2388;SDS011;1205;47.984;7.668;2023-08-01T07:04:45;8.50;;;3.83;;
2388;SDS011;1205;47.984;7.668;2023-08-01T07:07:10;5.10;;;3.57;;
2388;SDS011;1205;47.984;7.668;2023-08-01T07:09:36;4.77;;;4.13;;
2388;SDS011;1205;47.984;7.668;2023-08-01T07:12:02;8.73;;;3.97;;
2388;SDS011;1205;47.984;7.668;2023-08-01T07:14:28;8.83;;;3.53;;
2388;SDS011;1205;47.984;7.668;2023-08-01T07:16:53;4.97;;;3.40;;
2388;SDS011;1205;47.984;7.668;2023-08-01T07:19:19;9.90;;;4.80;;
2388;SDS011;1205;47.984;7.668;2023-08-01T07:21:44;11.53;;;4.97;;
2388;SDS011;1205;47.984;7.668;2023-08-01T07:24:12;7.83;;;4.60;;
2388;SDS011;1205;47.984;7.668;2023-08-01T07:26:39;6.73;;;4.57;;
2388;SDS011;1205;47.984;7.668;2023-08-01T07:29:04;6.80;;;4.93;;
2388;SDS011;1205;47.984;7.668;2023-08-01T07:31:30;7.33;;;4.20;;
2388;SDS011;1205;47.984;7.668;2023-08-01T07:33:56;8.97;;;4.77;;
2388;SDS011;1205;47.984;7.668;2023-08-01T07:36:21;6.23;;;3.60;;
2388;SDS011;1205;47.984;7.668;2023-08-01T07:38:47;11.13;;;4.60;;
2388;SDS011;1205;47.984;7.668;2023-08-01T07:41:12;6.17;;;4.00;;
2388;SDS011;1205;47.984;7.668;2023-08-01T07:43:38;8.47;;;4.20;;
2388;SDS011;1205;47.984;7.668;2023-08-01T07:46:04;9.03;;;5.00;;
2388;SDS011;1205;47.984;7.668;2023-08-01T07:48:29;5.83;;;4.10;;
2388;SDS011;1205;47.984;7.668;2023-08-01T07:50:55;7.00;;;4.37;;
2388;SDS011;1205;47.984;7.668;2023-08-01T07:53:20;9.73;;;4.60;;
2388;SDS011;1205;47.984;7.668;2023-08-01T07:55:46;8.80;;;4.47;;
2388;SDS011;1205;47.984;7.668;2023-08-01T07:58:11;5.50;;;4.70;;
2388;SDS011;1205;47.984;7.668;2023-08-01T08:00:37;6.20;;;4.30;;
2388;SDS011;1205;47.984;7.668;2023-08-01T08:03:03;9.50;;;4.83;;
2388;SDS011;1205;47.984;7.668;2023-08-01T08:05:30;4.03;;;3.60;;
2388;SDS011;1205;47.984;7.668;2023-08-01T08:07:56;6.00;;;4.20;;
2388;SDS011;1205;47.984;7.668;2023-08-01T08:10:21;4.90;;;3.67;;
2388;SDS011;1205;47.984;7.668;2023-08-01T08:12:47;8.00;;;4.53;;
2388;SDS011;1205;47.984;7.668;2023-08-01T08:15:12;10.23;;;4.57;;
2388;SDS011;1205;47.984;7.668;2023-08-01T08:17:40;3.90;;;3.50;;
2388;SDS011;1205;47.984;7.668;2023-08-01T08:20:06;4.20;;;3.80;;
2388;SDS011;1205;47.984;7.668;2023-08-01T08:22:32;5.50;;;4.03;;
2388;SDS011;1205;47.984;7.668;2023-08-01T08:24:57;4.80;;;3.60;;
2388;SDS011;1205;47.984;7.668;2023-08-01T08:27:23;6.07;;;3.60;;
2388;SDS011;1205;47.984;7.668;2023-08-01T08:29:49;3.43;;;3.10;;
2388;SDS011;1205;47.984;7.668;2023-08-01T08:32:15;4.10;;;3.70;;
2388;SDS011;1205;47.984;7.668;2023-08-01T08:34:41;8.77;;;3.60;;
2388;SDS011;1205;47.984;7.668;2023-08-01T08:37:06;4.73;;;3.73;;
2388;SDS011;1205;47.984;7.668;2023-08-01T08:39:32;3.13;;;2.90;;
2388;SDS011;1205;47.984;7.668;2023-08-01T08:41:57;5.17;;;4.20;;
2388;SDS011;1205;47.984;7.668;2023-08-01T08:44:24;5.23;;;3.47;;
2388;SDS011;1205;47.984;7.668;2023-08-01T08:46:51;4.97;;;3.73;;
2388;SDS011;1205;47.984;7.668;2023-08-01T08:49:18;4.27;;;3.80;;
2388;SDS011;1205;47.984;7.668;2023-08-01T08:51:47;3.67;;;3.37;;
2388;SDS011;1205;47.984;7.668;2023-08-01T08:54:14;6.77;;;4.00;;
2388;SDS011;1205;47.984;7.668;2023-08-01T08:56:40;5.30;;;3.70;;
2388;SDS011;1205;47.984;7.668;2023-08-01T08:59:07;3.93;;;3.63;;
2388;SDS011;1205;47.984;7.668;2023-08-01T09:01:36;5.27;;;3.53;;
2388;SDS011;1205;47.984;7.668;2023-08-01T09:04:02;5.53;;;4.20;;
2388;SDS011;1205;47.984;7.668;2023-08-01T09:06:30;3.73;;;3.33;;
2388;SDS011;1205;47.984;7.668;2023-08-01T09:09:13;4.30;;;3.33;;
2388;SDS011;1205;47.984;7.668;2023-08-01T09:11:44;4.00;;;3.10;;
2388;SDS011;1205;47.984;7.668;2023-08-01T09:14:11;3.60;;;3.30;;
2388;SDS011;1205;47.984;7.668;2023-08-01T09:16:37;7.53;;;3.07;;
2388;SDS011;1205;47.984;7.668;2023-08-01T09:19:05;2.40;;;2.20;;
2388;SDS011;1205;47.984;7.668;2023-08-01T09:21:32;1.90;;;1.80;;
2388;SDS011;1205;47.984;7.668;2023-08-01T09:26:35;4.57;;;2.83;;
2388;SDS011;1205;47.984;7.668;2023-08-01T09:29:01;4.83;;;2.60;;
2388;SDS011;1205;47.984;7.668;2023-08-01T09:31:33;8.10;;;3.17;;
2388;SDS011;1205;47.984;7.668;2023-08-01T09:34:02;4.57;;;2.80;;
2388;SDS011;1205;47.984;7.668;2023-08-01T09:36:32;2.60;;;2.37;;
2388;SDS011;1205;47.984;7.668;2023-08-01T09:38:59;6.03;;;2.50;;
2388;SDS011;1205;47.984;7.668;2023-08-01T09:41:26;2.83;;;2.63;;
2388;SDS011;1205;47.984;7.668;2023-08-01T09:43:53;2.50;;;2.30;;
2388;SDS011;1205;47.984;7.668;2023-08-01T09:46:18;3.17;;;2.77;;
2388;SDS011;1205;47.984;7.668;2023-08-01T09:48:44;2.40;;;2.23;;
2388;SDS011;1205;47.984;7.668;2023-08-01T09:51:10;3.13;;;2.70;;
2388;SDS011;1205;47.984;7.668;2023-08-01T09:53:55;2.23;;;2.13;;
2388;SDS011;1205;47.984;7.668;2023-08-01T09:56:25;5.67;;;3.00;;
2388;SDS011;1205;47.984;7.668;2023-08-01T09:58:52;2.87;;;2.50;;
2388;SDS011;1205;47.984;7.668;2023-08-01T10:01:19;4.10;;;2.27;;
2388;SDS011;1205;47.984;7.668;2023-08-01T10:03:47;2.80;;;2.60;;
2388;SDS011;1205;47.984;7.668;2023-08-01T10:06:19;3.00;;;2.60;;
2388;SDS011;1205;47.984;7.668;2023-08-01T10:08:46;7.07;;;2.47;;
2388;SDS011;1205;47.984;7.668;2023-08-01T10:11:14;3.13;;;2.30;;
2388;SDS011;1205;47.984;7.668;2023-08-01T10:13:41;4.73;;;2.83;;
2388;SDS011;1205;47.984;7.668;2023-08-01T10:16:08;2.60;;;2.50;;
2388;SDS011;1205;47.984;7.668;2023-08-01T10:18:34;5.10;;;3.20;;
2388;SDS011;1205;47.984;7.668;2023-08-01T10:21:02;11.30;;;2.30;;
2388;SDS011;1205;47.984;7.668;2023-08-01T10:23:29;4.00;;;2.27;;
2388;SDS011;1205;47.984;7.668;2023-08-01T10:25:57;2.43;;;2.23;;
2388;SDS011;1205;47.984;7.668;2023-08-01T10:28:34;3.30;;;2.57;;
2388;SDS011;1205;47.984;7.668;2023-08-01T10:31:08;3.60;;;2.60;;
2388;SDS011;1205;47.984;7.668;2023-08-01T10:33:33;3.50;;;2.53;;
2388;SDS011;1205;47.984;7.668;2023-08-01T10:35:59;4.63;;;2.70;;
2388;SDS011;1205;47.984;7.668;2023-08-01T10:38:25;2.17;;;2.07;;
2388;SDS011;1205;47.984;7.668;2023-08-01T10:40:50;2.20;;;2.00;;
2388;SDS011;1205;47.984;7.668;2023-08-01T10:43:20;2.53;;;2.40;;
2388;SDS011;1205;47.984;7.668;2023-08-01T10:45:47;2.00;;;1.80;;
2388;SDS011;1205;47.984;7.668;2023-08-01T10:48:12;1.63;;;1.63;;
2388;SDS011;1205;47.984;7.668;2023-08-01T10:50:39;2.27;;;2.13;;
2388;SDS011;1205;47.984;7.668;2023-08-01T10:53:05;1.80;;;1.70;;
2388;SDS011;1205;47.984;7.668;2023-08-01T10:55:43;2.47;;;1.63;;
2388;SDS011;1205;47.984;7.668;2023-08-01T10:58:11;1.47;;;1.37;;
2388;SDS011;1205;47.984;7.668;2023-08-01T11:00:37;1.53;;;1.43;;
2388;SDS011;1205;47.984;7.668;2023-08-01T11:03:03;1.30;;;1.30;;
2388;SDS011;1205;47.984;7.668;2023-08-01T11:05:29;1.50;;;1.43;;
2388;SDS011;1205;47.984;7.668;2023-08-01T11:10:22;2.93;;;1.70;;
2388;SDS011;1205;47.984;7.668;2023-08-01T11:12:48;1.60;;;1.47;;
2388;SDS011;1205;47.984;7.668;2023-08-01T11:15:14;1.33;;;1.23;;
2388;SDS011;1205;47.984;7.668;2023-08-01T11:17:40;1.03;;;1.03;;
2388;SDS011;1205;47.984;7.668;2023-08-01T11:20:08;1.30;;;1.30;;
2388;SDS011;1205;47.984;7.668;2023-08-01T11:22:35;1.90;;;1.13;;
2388;SDS011;1205;47.984;7.668;2023-08-01T11:25:02;7.47;;;1.10;;
2388;SDS011;1205;47.984;7.668;2023-08-01T11:27:28;1.60;;;1.50;;
2388;SDS011;1205;47.984;7.668;2023-08-01T11:29:54;2.40;;;1.30;;
2388;SDS011;1205;47.984;7.668;2023-08-01T11:32:20;1.23;;;1.23;;
2388;SDS011;1205;47.984;7.668;2023-08-01T11:34:47;1.30;;;1.20;;
2388;SDS011;1205;47.984;7.668;2023-08-01T11:37:14;1.80;;;1.40;;
2388;SDS011;1205;47.984;7.668;2023-08-01T11:39:43;1.07;;;1.07;;
2388;SDS011;1205;47.984;7.668;2023-08-01T11:42:13;1.20;;;1.20;;
2388;SDS011;1205;47.984;7.668;2023-08-01T11:44:42;2.40;;;0.97;;
2388;SDS011;1205;47.984;7.668;2023-08-01T11:47:14;1.10;;;1.10;;
2388;SDS011;1205;47.984;7.668;2023-08-01T11:49:47;1.10;;;1.10;;
2388;SDS011;1205;47.984;7.668;2023-08-01T11:52:23;1.10;;;1.00;;
2388;SDS011;1205;47.984;7.668;2023-08-01T11:54:50;2.40;;;1.20;;
2388;SDS011;1205;47.984;7.668;2023-08-01T11:57:16;1.17;;;1.17;;
2388;SDS011;1205;47.984;7.668;2023-08-01T11:59:48;1.30;;;1.30;;
2388;SDS011;1205;47.984;7.668;2023-08-01T12:02:21;1.27;;;1.27;;
2388;SDS011;1205;47.984;7.668;2023-08-01T12:04:48;0.90;;;0.90;;
2388;SDS011;1205;47.984;7.668;2023-08-01T12:07:14;0.97;;;0.97;;
2388;SDS011;1205;47.984;7.668;2023-08-01T12:09:41;0.70;;;0.70;;
2388;SDS011;1205;47.984;7.668;2023-08-01T12:12:08;0.83;;;0.83;;
2388;SDS011;1205;47.984;7.668;2023-08-01T12:14:38;1.03;;;1.00;;
2388;SDS011;1205;47.984;7.668;2023-08-01T12:17:05;1.00;;;1.00;;
2388;SDS011;1205;47.984;7.668;2023-08-01T12:19:30;1.57;;;1.00;;
2388;SDS011;1205;47.984;7.668;2023-08-01T12:21:58;1.07;;;1.07;;
2388;SDS011;1205;47.984;7.668;2023-08-01T12:24:24;1.73;;;1.20;;
2388;SDS011;1205;47.984;7.668;2023-08-01T12:26:50;0.73;;;0.73;;
2388;SDS011;1205;47.984;7.668;2023-08-01T12:29:15;0.70;;;0.70;;
2388;SDS011;1205;47.984;7.668;2023-08-01T12:31:41;1.20;;;1.20;;
2388;SDS011;1205;47.984;7.668;2023-08-01T12:34:06;0.80;;;0.80;;
2388;SDS011;1205;47.984;7.668;2023-08-01T12:36:32;0.70;;;0.70;;
2388;SDS011;1205;47.984;7.668;2023-08-01T12:38:58;0.90;;;0.90;;
2388;SDS011;1205;47.984;7.668;2023-08-01T12:41:23;0.90;;;0.90;;
2388;SDS011;1205;47.984;7.668;2023-08-01T12:43:49;1.37;;;0.90;;
2388;SDS011;1205;47.984;7.668;2023-08-01T12:46:15;1.13;;;1.00;;
2388;SDS011;1205;47.984;7.668;2023-08-01T12:48:40;0.80;;;0.80;;
2388;SDS011;1205;47.984;7.668;2023-08-01T12:51:06;0.80;;;0.80;;
2388;SDS011;1205;47.984;7.668;2023-08-01T12:53:33;0.93;;;0.93;;
2388;SDS011;1205;47.984;7.668;2023-08-01T12:55:58;0.80;;;0.80;;
2388;SDS011;1205;47.984;7.668;2023-08-01T12:58:24;0.73;;;0.60;;
2388;SDS011;1205;47.984;7.668;2023-08-01T13:00:49;0.70;;;0.70;;
2388;SDS011;1205;47.984;7.668;2023-08-01T13:03:15;0.90;;;0.90;;
2388;SDS011;1205;47.984;7.668;2023-08-01T13:05:41;1.13;;;0.83;;
2388;SDS011;1205;47.984;7.668;2023-08-01T13:08:07;0.93;;;0.93;;
2388;SDS011;1205;47.984;7.668;2023-08-01T13:10:34;0.67;;;0.67;;
2388;SDS011;1205;47.984;7.668;2023-08-01T13:13:01;1.70;;;0.80;;
2388;SDS011;1205;47.984;7.668;2023-08-01T13:15:27;2.70;;;1.00;;
2388;SDS011;1205;47.984;7.668;2023-08-01T13:17:53;1.13;;;0.90;;
2388;SDS011;1205;47.984;7.668;2023-08-01T13:20:19;0.70;;;0.70;;
2388;SDS011;1205;47.984;7.668;2023-08-01T13:22:45;1.10;;;1.03;;
2388;SDS011;1205;47.984;7.668;2023-08-01T13:25:13;1.00;;;0.97;;
2388;SDS011;1205;47.984;7.668;2023-08-01T13:27:39;0.93;;;0.90;;
2388;SDS011;1205;47.984;7.668;2023-08-01T13:30:05;1.10;;;1.00;;
2388;SDS011;1205;47.984;7.668;2023-08-01T13:32:31;0.80;;;0.80;;
2388;SDS011;1205;47.984;7.668;2023-08-01T13:34:56;1.00;;;0.90;;
2388;SDS011;1205;47.984;7.668;2023-08-01T13:37:22;0.70;;;0.70;;
2388;SDS011;1205;47.984;7.668;2023-08-01T13:39:48;1.03;;;1.00;;
2388;SDS011;1205;47.984;7.668;2023-08-01T13:42:13;0.80;;;0.80;;
2388;SDS011;1205;47.984;7.668;2023-08-01T13:44:39;0.80;;;0.80;;
2388;SDS011;1205;47.984;7.668;2023-08-01T13:47:07;0.70;;;0.70;;
2388;SDS011;1205;47.984;7.668;2023-08-01T13:49:32;0.77;;;0.77;;
2388;SDS011;1205;47.984;7.668;2023-08-01T13:51:58;2.00;;;0.83;;
2388;SDS011;1205;47.984;7.668;2023-08-01T13:54:25;0.90;;;0.90;;
2388;SDS011;1205;47.984;7.668;2023-08-01T13:56:51;0.90;;;0.87;;
2388;SDS011;1205;47.984;7.668;2023-08-01T13:59:18;0.77;;;0.77;;
2388;SDS011;1205;47.984;7.668;2023-08-01T14:01:43;0.80;;;0.80;;
2388;SDS011;1205;47.984;7.668;2023-08-01T14:04:10;0.93;;;0.80;;
2388;SDS011;1205;47.984;7.668;2023-08-01T14:06:35;0.70;;;0.70;;
2388;SDS011;1205;47.984;7.668;2023-08-01T14:09:01;6.10;;;0.80;;
2388;SDS011;1205;47.984;7.668;2023-08-01T14:11:26;0.97;;;0.87;;
2388;SDS011;1205;47.984;7.668;2023-08-01T14:13:52;0.83;;;0.83;;
2388;SDS011;1205;47.984;7.668;2023-08-01T14:16:17;1.43;;;1.33;;
2388;SDS011;1205;47.984;7.668;2023-08-01T14:18:43;1.03;;;1.03;;
2388;SDS011;1205;47.984;7.668;2023-08-01T14:21:09;1.70;;;1.10;;
2388;SDS011;1205;47.984;7.668;2023-08-01T14:23:35;2.30;;;0.93;;
2388;SDS011;1205;47.984;7.668;2023-08-01T14:26:03;1.07;;;1.07;;
2388;SDS011;1205;47.984;7.668;2023-08-01T14:28:28;2.10;;;0.97;;
2388;SDS011;1205;47.984;7.668;2023-08-01T14:30:54;0.97;;;0.97;;
2388;SDS011;1205;47.984;7.668;2023-08-01T14:33:20;1.13;;;1.13;;
2388;SDS011;1205;47.984;7.668;2023-08-01T14:35:46;1.03;;;1.03;;
2388;SDS011;1205;47.984;7.668;2023-08-01T14:38:11;1.03;;;1.03;;
2388;SDS011;1205;47.984;7.668;2023-08-01T14:40:37;1.13;;;1.03;;
2388;SDS011;1205;47.984;7.668;2023-08-01T14:43:04;1.70;;;1.70;;
2388;SDS011;1205;47.984;7.668;2023-08-01T14:45:30;1.70;;;1.60;;
2388;SDS011;1205;47.984;7.668;2023-08-01T14:47:56;1.57;;;1.57;;
2388;SDS011;1205;47.984;7.668;2023-08-01T14:50:21;6.53;;;1.20;;
2388;SDS011;1205;47.984;7.668;2023-08-01T14:52:47;1.50;;;1.40;;
2388;SDS011;1205;47.984;7.668;2023-08-01T14:55:12;1.10;;;1.07;;
2388;SDS011;1205;47.984;7.668;2023-08-01T14:57:38;0.87;;;0.83;;
2388;SDS011;1205;47.984;7.668;2023-08-01T15:00:04;0.70;;;0.70;;
2388;SDS011;1205;47.984;7.668;2023-08-01T15:02:30;1.13;;;1.13;;
2388;SDS011;1205;47.984;7.668;2023-08-01T15:04:56;1.23;;;0.93;;
2388;SDS011;1205;47.984;7.668;2023-08-01T15:07:24;1.17;;;1.17;;
2388;SDS011;1205;47.984;7.668;2023-08-01T15:09:50;1.37;;;1.33;;
2388;SDS011;1205;47.984;7.668;2023-08-01T15:12:17;1.23;;;1.23;;
2388;SDS011;1205;47.984;7.668;2023-08-01T15:14:48;0.93;;;0.93;;